sensor_id;sensor_type;location;lat;lon;timestamp;P1;durP1;ratioP1;P2;durP2;ratioP2
37655;SDS011;23498;50.958;3.124;2024-03-17T00:02:22;12.50;;;7.45;;
37655;SDS011;23498;50.958;3.124;2024-03-17T00:04:48;15.38;;;8.15;;
37655;SDS011;23498;50.958;3.124;2024-03-17T00:07:14;12.38;;;7.82;;
37655;SDS011;23498;50.958;3.124;2024-03-17T00:09:40;11.60;;;7.68;;
37655;SDS011;23498;50.958;3.124;2024-03-17T00:12:07;14.10;;;7.63;;
37655;SDS011;23498;50.958;3.124;2024-03-17T00:14:34;14.23;;;7.63;;
37655;SDS011;23498;50.958;3.124;2024-03-17T00:17:02;13.68;;;8.00;;
37655;SDS011;23498;50.958;3.124;2024-03-17T00:19:28;12.15;;;8.05;;
37655;SDS011;23498;50.958;3.124;2024-03-17T00:21:54;11.90;;;7.35;;
37655;SDS011;23498;50.958;3.124;2024-03-17T00:24:20;12.43;;;7.57;;
37655;SDS011;23498;50.958;3.124;2024-03-17T00:26:47;14.18;;;8.30;;
37655;SDS011;23498;50.958;3.124;2024-03-17T00:29:14;14.23;;;8.15;;
37655;SDS011;23498;50.958;3.124;2024-03-17T00:31:40;14.32;;;8.75;;
37655;SDS011;23498;50.958;3.124;2024-03-17T00:34:06;14.57;;;8.50;;
37655;SDS011;23498;50.958;3.124;2024-03-17T00:36:32;12.35;;;7.55;;
37655;SDS011;23498;50.958;3.124;2024-03-17T00:38:58;13.57;;;7.93;;
37655;SDS011;23498;50.958;3.124;2024-03-17T00:41:25;14.23;;;8.02;;
37655;SDS011;23498;50.958;3.124;2024-03-17T00:43:51;14.60;;;8.00;;
37655;SDS011;23498;50.958;3.124;2024-03-17T00:46:18;14.15;;;8.43;;
37655;SDS011;23498;50.958;3.124;2024-03-17T00:48:46;15.07;;;8.30;;
37655;SDS011;23498;50.958;3.124;2024-03-17T00:51:12;12.82;;;8.48;;
37655;SDS011;23498;50.958;3.124;2024-03-17T00:53:38;11.52;;;7.88;;
37655;SDS011;23498;50.958;3.124;2024-03-17T00:56:04;14.45;;;7.93;;
37655;SDS011;23498;50.958;3.124;2024-03-17T00:58:31;14.10;;;8.50;;
37655;SDS011;23498;50.958;3.124;2024-03-17T01:00:57;13.35;;;8.23;;
37655;SDS011;23498;50.958;3.124;2024-03-17T01:03:23;13.38;;;7.70;;
37655;SDS011;23498;50.958;3.124;2024-03-17T01:05:50;16.08;;;8.25;;
37655;SDS011;23498;50.958;3.124;2024-03-17T01:08:17;11.35;;;8.02;;
37655;SDS011;23498;50.958;3.124;2024-03-17T01:10:44;10.55;;;7.25;;
37655;SDS011;23498;50.958;3.124;2024-03-17T01:13:10;13.90;;;8.55;;
37655;SDS011;23498;50.958;3.124;2024-03-17T01:15:36;11.75;;;8.40;;
37655;SDS011;23498;50.958;3.124;2024-03-17T01:18:03;13.15;;;7.85;;
37655;SDS011;23498;50.958;3.124;2024-03-17T01:20:30;11.52;;;8.07;;
37655;SDS011;23498;50.958;3.124;2024-03-17T01:22:56;14.40;;;8.52;;
37655;SDS011;23498;50.958;3.124;2024-03-17T01:25:22;11.95;;;7.93;;
37655;SDS011;23498;50.958;3.124;2024-03-17T01:27:50;16.05;;;9.10;;
37655;SDS011;23498;50.958;3.124;2024-03-17T01:30:17;11.88;;;8.43;;
37655;SDS011;23498;50.958;3.124;2024-03-17T01:32:44;12.60;;;8.50;;
37655;SDS011;23498;50.958;3.124;2024-03-17T01:35:10;15.20;;;8.45;;
37655;SDS011;23498;50.958;3.124;2024-03-17T01:37:37;16.63;;;8.40;;
37655;SDS011;23498;50.958;3.124;2024-03-17T01:40:03;15.90;;;9.45;;
37655;SDS011;23498;50.958;3.124;2024-03-17T01:42:38;14.57;;;8.82;;
37655;SDS011;23498;50.958;3.124;2024-03-17T01:47:43;14.35;;;9.48;;
37655;SDS011;23498;50.958;3.124;2024-03-17T01:50:09;13.50;;;8.63;;
37655;SDS011;23498;50.958;3.124;2024-03-17T01:52:37;13.52;;;8.48;;
37655;SDS011;23498;50.958;3.124;2024-03-17T01:55:03;13.55;;;8.30;;
37655;SDS011;23498;50.958;3.124;2024-03-17T01:57:29;14.25;;;8.82;;
37655;SDS011;23498;50.958;3.124;2024-03-17T01:59:56;13.05;;;8.57;;
37655;SDS011;23498;50.958;3.124;2024-03-17T02:02:23;13.75;;;8.88;;
37655;SDS011;23498;50.958;3.124;2024-03-17T02:04:49;13.63;;;8.30;;
37655;SDS011;23498;50.958;3.124;2024-03-17T02:07:15;12.63;;;7.97;;
37655;SDS011;23498;50.958;3.124;2024-03-17T02:09:41;15.50;;;8.98;;
37655;SDS011;23498;50.958;3.124;2024-03-17T02:12:08;13.68;;;8.82;;
37655;SDS011;23498;50.958;3.124;2024-03-17T02:14:36;14.38;;;8.70;;
37655;SDS011;23498;50.958;3.124;2024-03-17T02:17:02;12.45;;;8.45;;
37655;SDS011;23498;50.958;3.124;2024-03-17T02:19:29;13.35;;;8.57;;
37655;SDS011;23498;50.958;3.124;2024-03-17T02:21:55;15.02;;;8.35;;
37655;SDS011;23498;50.958;3.124;2024-03-17T02:24:21;16.42;;;8.90;;
37655;SDS011;23498;50.958;3.124;2024-03-17T02:26:47;16.15;;;9.15;;
37655;SDS011;23498;50.958;3.124;2024-03-17T02:29:13;14.05;;;9.05;;
37655;SDS011;23498;50.958;3.124;2024-03-17T02:31:39;15.23;;;8.70;;
37655;SDS011;23498;50.958;3.124;2024-03-17T02:34:05;14.18;;;8.82;;
37655;SDS011;23498;50.958;3.124;2024-03-17T02:36:31;14.52;;;9.18;;
37655;SDS011;23498;50.958;3.124;2024-03-17T02:38:58;16.45;;;9.02;;
37655;SDS011;23498;50.958;3.124;2024-03-17T02:41:43;14.00;;;8.85;;
37655;SDS011;23498;50.958;3.124;2024-03-17T02:44:11;13.48;;;9.07;;
37655;SDS011;23498;50.958;3.124;2024-03-17T02:46:37;13.77;;;9.05;;
37655;SDS011;23498;50.958;3.124;2024-03-17T02:49:03;16.10;;;9.05;;
37655;SDS011;23498;50.958;3.124;2024-03-17T02:51:30;16.65;;;9.00;;
37655;SDS011;23498;50.958;3.124;2024-03-17T02:53:56;13.98;;;8.80;;
37655;SDS011;23498;50.958;3.124;2024-03-17T02:56:24;15.52;;;8.68;;
37655;SDS011;23498;50.958;3.124;2024-03-17T02:58:50;17.00;;;9.50;;
37655;SDS011;23498;50.958;3.124;2024-03-17T03:01:17;16.10;;;9.15;;
37655;SDS011;23498;50.958;3.124;2024-03-17T03:03:44;19.23;;;9.82;;
37655;SDS011;23498;50.958;3.124;2024-03-17T03:06:10;15.20;;;8.80;;
37655;SDS011;23498;50.958;3.124;2024-03-17T03:08:37;16.77;;;9.52;;
37655;SDS011;23498;50.958;3.124;2024-03-17T03:11:05;15.60;;;9.07;;
37655;SDS011;23498;50.958;3.124;2024-03-17T03:13:31;15.02;;;8.60;;
37655;SDS011;23498;50.958;3.124;2024-03-17T03:15:57;15.40;;;8.80;;
37655;SDS011;23498;50.958;3.124;2024-03-17T03:18:23;14.98;;;8.38;;
37655;SDS011;23498;50.958;3.124;2024-03-17T03:20:50;16.63;;;8.75;;
37655;SDS011;23498;50.958;3.124;2024-03-17T03:23:19;15.63;;;8.93;;
37655;SDS011;23498;50.958;3.124;2024-03-17T03:25:46;15.25;;;8.55;;
37655;SDS011;23498;50.958;3.124;2024-03-17T03:28:12;14.07;;;9.05;;
37655;SDS011;23498;50.958;3.124;2024-03-17T03:30:39;13.95;;;8.77;;
37655;SDS011;23498;50.958;3.124;2024-03-17T03:33:05;13.93;;;8.40;;
37655;SDS011;23498;50.958;3.124;2024-03-17T03:35:31;12.77;;;8.02;;
37655;SDS011;23498;50.958;3.124;2024-03-17T03:37:58;14.27;;;8.80;;
37655;SDS011;23498;50.958;3.124;2024-03-17T03:40:26;14.82;;;9.43;;
37655;SDS011;23498;50.958;3.124;2024-03-17T03:42:52;13.07;;;8.60;;
37655;SDS011;23498;50.958;3.124;2024-03-17T03:45:18;14.30;;;8.60;;
37655;SDS011;23498;50.958;3.124;2024-03-17T03:47:49;13.82;;;8.38;;
37655;SDS011;23498;50.958;3.124;2024-03-17T03:50:16;14.55;;;9.15;;
37655;SDS011;23498;50.958;3.124;2024-03-17T03:52:43;14.88;;;9.07;;
37655;SDS011;23498;50.958;3.124;2024-03-17T03:55:10;13.60;;;8.35;;
37655;SDS011;23498;50.958;3.124;2024-03-17T03:57:36;15.45;;;8.45;;
37655;SDS011;23498;50.958;3.124;2024-03-17T04:00:03;13.38;;;8.30;;
37655;SDS011;23498;50.958;3.124;2024-03-17T04:02:38;12.60;;;8.43;;
37655;SDS011;23498;50.958;3.124;2024-03-17T04:05:05;14.95;;;8.27;;
37655;SDS011;23498;50.958;3.124;2024-03-17T04:07:31;12.75;;;8.13;;
37655;SDS011;23498;50.958;3.124;2024-03-17T04:09:57;12.68;;;7.75;;
37655;SDS011;23498;50.958;3.124;2024-03-17T04:12:24;18.60;;;8.60;;
37655;SDS011;23498;50.958;3.124;2024-03-17T04:14:50;11.80;;;7.53;;
37655;SDS011;23498;50.958;3.124;2024-03-17T04:17:19;16.40;;;8.82;;
37655;SDS011;23498;50.958;3.124;2024-03-17T04:19:47;11.90;;;8.18;;
37655;SDS011;23498;50.958;3.124;2024-03-17T04:22:14;16.70;;;8.38;;
37655;SDS011;23498;50.958;3.124;2024-03-17T04:24:40;15.00;;;8.07;;
37655;SDS011;23498;50.958;3.124;2024-03-17T04:27:07;12.68;;;8.05;;
37655;SDS011;23498;50.958;3.124;2024-03-17T04:29:33;14.00;;;7.95;;
37655;SDS011;23498;50.958;3.124;2024-03-17T04:32:00;12.30;;;8.10;;
37655;SDS011;23498;50.958;3.124;2024-03-17T04:34:26;14.98;;;8.07;;
37655;SDS011;23498;50.958;3.124;2024-03-17T04:36:52;13.38;;;8.02;;
37655;SDS011;23498;50.958;3.124;2024-03-17T04:39:21;11.68;;;7.72;;
37655;SDS011;23498;50.958;3.124;2024-03-17T04:41:47;12.05;;;7.72;;
37655;SDS011;23498;50.958;3.124;2024-03-17T04:44:13;13.65;;;8.20;;
37655;SDS011;23498;50.958;3.124;2024-03-17T04:46:39;14.18;;;7.82;;
37655;SDS011;23498;50.958;3.124;2024-03-17T04:49:05;14.10;;;7.65;;
37655;SDS011;23498;50.958;3.124;2024-03-17T04:51:31;13.50;;;7.45;;
37655;SDS011;23498;50.958;3.124;2024-03-17T04:53:58;13.18;;;8.10;;
37655;SDS011;23498;50.958;3.124;2024-03-17T04:56:24;12.93;;;8.02;;
37655;SDS011;23498;50.958;3.124;2024-03-17T04:58:50;13.10;;;7.88;;
37655;SDS011;23498;50.958;3.124;2024-03-17T05:01:16;11.25;;;7.50;;
37655;SDS011;23498;50.958;3.124;2024-03-17T05:03:43;13.65;;;8.23;;
37655;SDS011;23498;50.958;3.124;2024-03-17T05:06:09;11.32;;;6.28;;
37655;SDS011;23498;50.958;3.124;2024-03-17T05:08:35;11.75;;;7.43;;
37655;SDS011;23498;50.958;3.124;2024-03-17T05:11:04;12.32;;;7.45;;
37655;SDS011;23498;50.958;3.124;2024-03-17T05:13:34;12.73;;;7.55;;
37655;SDS011;23498;50.958;3.124;2024-03-17T05:16:00;12.50;;;6.95;;
37655;SDS011;23498;50.958;3.124;2024-03-17T05:18:27;12.73;;;7.45;;
37655;SDS011;23498;50.958;3.124;2024-03-17T05:20:56;10.85;;;7.05;;
37655;SDS011;23498;50.958;3.124;2024-03-17T05:23:24;11.02;;;7.05;;
37655;SDS011;23498;50.958;3.124;2024-03-17T05:25:53;11.85;;;7.30;;
37655;SDS011;23498;50.958;3.124;2024-03-17T05:28:20;12.70;;;8.23;;
37655;SDS011;23498;50.958;3.124;2024-03-17T05:30:46;13.55;;;7.00;;
37655;SDS011;23498;50.958;3.124;2024-03-17T05:33:13;10.32;;;7.22;;
37655;SDS011;23498;50.958;3.124;2024-03-17T05:35:39;14.30;;;8.10;;
37655;SDS011;23498;50.958;3.124;2024-03-17T05:38:05;13.85;;;7.78;;
37655;SDS011;23498;50.958;3.124;2024-03-17T05:40:35;12.35;;;7.95;;
37655;SDS011;23498;50.958;3.124;2024-03-17T05:43:06;12.27;;;7.68;;
37655;SDS011;23498;50.958;3.124;2024-03-17T05:45:32;12.35;;;7.50;;
37655;SDS011;23498;50.958;3.124;2024-03-17T05:47:58;13.48;;;7.75;;
37655;SDS011;23498;50.958;3.124;2024-03-17T05:50:24;12.02;;;7.25;;
37655;SDS011;23498;50.958;3.124;2024-03-17T05:52:52;11.07;;;6.97;;
37655;SDS011;23498;50.958;3.124;2024-03-17T05:55:18;11.90;;;7.40;;
37655;SDS011;23498;50.958;3.124;2024-03-17T05:57:44;11.98;;;7.20;;
37655;SDS011;23498;50.958;3.124;2024-03-17T06:00:10;10.48;;;6.78;;
37655;SDS011;23498;50.958;3.124;2024-03-17T06:02:40;12.43;;;7.40;;
37655;SDS011;23498;50.958;3.124;2024-03-17T06:05:06;13.20;;;6.82;;
37655;SDS011;23498;50.958;3.124;2024-03-17T06:07:35;13.32;;;7.40;;
37655;SDS011;23498;50.958;3.124;2024-03-17T06:10:01;10.18;;;6.10;;
37655;SDS011;23498;50.958;3.124;2024-03-17T06:12:27;12.20;;;7.07;;
37655;SDS011;23498;50.958;3.124;2024-03-17T06:14:53;12.20;;;6.68;;
37655;SDS011;23498;50.958;3.124;2024-03-17T06:17:19;11.75;;;6.28;;
37655;SDS011;23498;50.958;3.124;2024-03-17T06:19:45;10.23;;;6.38;;
37655;SDS011;23498;50.958;3.124;2024-03-17T06:22:11;15.55;;;7.45;;
37655;SDS011;23498;50.958;3.124;2024-03-17T06:24:37;11.63;;;7.05;;
37655;SDS011;23498;50.958;3.124;2024-03-17T06:27:03;12.70;;;6.90;;
37655;SDS011;23498;50.958;3.124;2024-03-17T06:29:32;12.60;;;7.57;;
37655;SDS011;23498;50.958;3.124;2024-03-17T06:31:58;10.95;;;6.85;;
37655;SDS011;23498;50.958;3.124;2024-03-17T06:34:25;15.85;;;7.22;;
37655;SDS011;23498;50.958;3.124;2024-03-17T06:36:51;11.25;;;6.82;;
37655;SDS011;23498;50.958;3.124;2024-03-17T06:39:17;10.77;;;6.35;;
37655;SDS011;23498;50.958;3.124;2024-03-17T06:41:46;10.23;;;6.30;;
37655;SDS011;23498;50.958;3.124;2024-03-17T06:44:12;11.60;;;6.88;;
37655;SDS011;23498;50.958;3.124;2024-03-17T06:46:38;13.98;;;6.97;;
37655;SDS011;23498;50.958;3.124;2024-03-17T06:49:04;14.40;;;7.38;;
37655;SDS011;23498;50.958;3.124;2024-03-17T06:51:30;10.20;;;6.70;;
37655;SDS011;23498;50.958;3.124;2024-03-17T06:53:56;10.75;;;6.97;;
37655;SDS011;23498;50.958;3.124;2024-03-17T06:56:23;11.52;;;6.50;;
37655;SDS011;23498;50.958;3.124;2024-03-17T06:58:50;11.75;;;7.60;;
37655;SDS011;23498;50.958;3.124;2024-03-17T07:01:17;13.68;;;7.45;;
37655;SDS011;23498;50.958;3.124;2024-03-17T07:03:44;11.80;;;6.75;;
37655;SDS011;23498;50.958;3.124;2024-03-17T07:06:10;10.93;;;6.63;;
37655;SDS011;23498;50.958;3.124;2024-03-17T07:08:36;13.38;;;7.18;;
37655;SDS011;23498;50.958;3.124;2024-03-17T07:11:06;12.25;;;6.68;;
37655;SDS011;23498;50.958;3.124;2024-03-17T07:13:33;12.43;;;6.95;;
37655;SDS011;23498;50.958;3.124;2024-03-17T07:15:59;14.18;;;7.13;;
37655;SDS011;23498;50.958;3.124;2024-03-17T07:18:27;13.68;;;7.28;;
37655;SDS011;23498;50.958;3.124;2024-03-17T07:20:57;12.80;;;6.78;;
37655;SDS011;23498;50.958;3.124;2024-03-17T07:23:23;11.25;;;6.65;;
37655;SDS011;23498;50.958;3.124;2024-03-17T07:25:56;12.88;;;6.47;;
37655;SDS011;23498;50.958;3.124;2024-03-17T07:28:22;12.82;;;7.40;;
37655;SDS011;23498;50.958;3.124;2024-03-17T07:30:53;11.20;;;6.28;;
37655;SDS011;23498;50.958;3.124;2024-03-17T07:33:20;14.70;;;7.28;;
37655;SDS011;23498;50.958;3.124;2024-03-17T07:35:53;12.15;;;6.90;;
37655;SDS011;23498;50.958;3.124;2024-03-17T07:38:20;13.63;;;7.60;;
37655;SDS011;23498;50.958;3.124;2024-03-17T07:40:55;12.10;;;6.72;;
37655;SDS011;23498;50.958;3.124;2024-03-17T07:43:22;11.30;;;6.65;;
37655;SDS011;23498;50.958;3.124;2024-03-17T07:45:56;10.98;;;7.25;;
37655;SDS011;23498;50.958;3.124;2024-03-17T07:48:22;12.57;;;6.32;;
37655;SDS011;23498;50.958;3.124;2024-03-17T07:50:58;13.70;;;7.47;;
37655;SDS011;23498;50.958;3.124;2024-03-17T07:53:25;12.57;;;6.90;;
37655;SDS011;23498;50.958;3.124;2024-03-17T07:55:58;13.63;;;7.70;;
37655;SDS011;23498;50.958;3.124;2024-03-17T07:58:25;12.57;;;7.65;;
37655;SDS011;23498;50.958;3.124;2024-03-17T08:00:52;16.20;;;7.80;;
37655;SDS011;23498;50.958;3.124;2024-03-17T08:03:18;13.68;;;7.45;;
37655;SDS011;23498;50.958;3.124;2024-03-17T08:05:50;12.68;;;7.13;;
37655;SDS011;23498;50.958;3.124;2024-03-17T08:08:17;11.90;;;8.00;;
37655;SDS011;23498;50.958;3.124;2024-03-17T08:10:43;14.32;;;7.70;;
37655;SDS011;23498;50.958;3.124;2024-03-17T08:13:09;13.43;;;7.70;;
37655;SDS011;23498;50.958;3.124;2024-03-17T08:15:35;18.17;;;7.97;;
37655;SDS011;23498;50.958;3.124;2024-03-17T08:18:02;16.05;;;8.27;;
37655;SDS011;23498;50.958;3.124;2024-03-17T08:20:29;18.10;;;9.48;;
37655;SDS011;23498;50.958;3.124;2024-03-17T08:22:58;17.02;;;8.98;;
37655;SDS011;23498;50.958;3.124;2024-03-17T08:25:24;16.30;;;9.02;;
37655;SDS011;23498;50.958;3.124;2024-03-17T08:27:50;18.30;;;9.93;;
37655;SDS011;23498;50.958;3.124;2024-03-17T08:30:33;16.83;;;9.80;;
37655;SDS011;23498;50.958;3.124;2024-03-17T08:32:59;15.43;;;8.88;;
37655;SDS011;23498;50.958;3.124;2024-03-17T08:35:26;19.15;;;10.85;;
37655;SDS011;23498;50.958;3.124;2024-03-17T08:37:52;14.07;;;8.30;;
37655;SDS011;23498;50.958;3.124;2024-03-17T08:40:21;15.35;;;8.90;;
37655;SDS011;23498;50.958;3.124;2024-03-17T08:42:48;17.83;;;10.80;;
37655;SDS011;23498;50.958;3.124;2024-03-17T08:45:14;16.55;;;10.10;;
37655;SDS011;23498;50.958;3.124;2024-03-17T08:47:41;16.02;;;9.88;;
37655;SDS011;23498;50.958;3.124;2024-03-17T08:50:07;17.17;;;9.02;;
37655;SDS011;23498;50.958;3.124;2024-03-17T08:52:34;15.55;;;9.35;;
37655;SDS011;23498;50.958;3.124;2024-03-17T08:55:00;14.40;;;9.30;;
37655;SDS011;23498;50.958;3.124;2024-03-17T08:57:29;17.50;;;10.05;;
37655;SDS011;23498;50.958;3.124;2024-03-17T08:59:57;14.32;;;9.00;;
37655;SDS011;23498;50.958;3.124;2024-03-17T09:02:23;13.50;;;9.30;;
37655;SDS011;23498;50.958;3.124;2024-03-17T09:04:49;16.75;;;9.40;;
37655;SDS011;23498;50.958;3.124;2024-03-17T09:07:15;17.73;;;9.50;;
37655;SDS011;23498;50.958;3.124;2024-03-17T09:09:42;15.63;;;9.00;;
37655;SDS011;23498;50.958;3.124;2024-03-17T09:12:08;18.05;;;9.65;;
37655;SDS011;23498;50.958;3.124;2024-03-17T09:14:37;16.88;;;10.13;;
37655;SDS011;23498;50.958;3.124;2024-03-17T09:17:06;17.63;;;11.35;;
37655;SDS011;23498;50.958;3.124;2024-03-17T09:19:32;16.95;;;10.45;;
37655;SDS011;23498;50.958;3.124;2024-03-17T09:21:58;13.52;;;9.82;;
37655;SDS011;23498;50.958;3.124;2024-03-17T09:24:24;16.20;;;9.55;;
37655;SDS011;23498;50.958;3.124;2024-03-17T09:26:51;16.70;;;8.95;;
37655;SDS011;23498;50.958;3.124;2024-03-17T09:29:18;15.70;;;9.50;;
37655;SDS011;23498;50.958;3.124;2024-03-17T09:31:44;15.57;;;9.55;;
37655;SDS011;23498;50.958;3.124;2024-03-17T09:34:10;14.70;;;8.30;;
37655;SDS011;23498;50.958;3.124;2024-03-17T09:36:36;15.05;;;9.05;;
37655;SDS011;23498;50.958;3.124;2024-03-17T09:39:02;16.88;;;8.75;;
37655;SDS011;23498;50.958;3.124;2024-03-17T09:41:30;18.33;;;9.10;;
37655;SDS011;23498;50.958;3.124;2024-03-17T09:43:57;15.32;;;9.52;;
37655;SDS011;23498;50.958;3.124;2024-03-17T09:46:24;15.85;;;9.45;;
37655;SDS011;23498;50.958;3.124;2024-03-17T09:48:51;13.35;;;8.80;;
37655;SDS011;23498;50.958;3.124;2024-03-17T09:51:21;13.05;;;8.77;;
37655;SDS011;23498;50.958;3.124;2024-03-17T09:53:50;13.93;;;8.32;;
37655;SDS011;23498;50.958;3.124;2024-03-17T09:56:22;13.75;;;8.23;;
37655;SDS011;23498;50.958;3.124;2024-03-17T09:58:49;16.02;;;8.45;;
37655;SDS011;23498;50.958;3.124;2024-03-17T10:01:15;12.93;;;8.38;;
37655;SDS011;23498;50.958;3.124;2024-03-17T10:03:51;16.33;;;9.38;;
37655;SDS011;23498;50.958;3.124;2024-03-17T10:06:20;14.90;;;8.75;;
37655;SDS011;23498;50.958;3.124;2024-03-17T10:08:47;14.43;;;8.50;;
37655;SDS011;23498;50.958;3.124;2024-03-17T10:11:14;16.38;;;8.50;;
37655;SDS011;23498;50.958;3.124;2024-03-17T10:13:46;13.90;;;8.68;;
37655;SDS011;23498;50.958;3.124;2024-03-17T10:16:20;14.30;;;8.48;;
37655;SDS011;23498;50.958;3.124;2024-03-17T10:18:48;17.95;;;9.00;;
37655;SDS011;23498;50.958;3.124;2024-03-17T10:21:26;16.40;;;8.52;;
37655;SDS011;23498;50.958;3.124;2024-03-17T10:24:12;12.73;;;8.40;;
37655;SDS011;23498;50.958;3.124;2024-03-17T10:29:05;13.38;;;8.10;;
37655;SDS011;23498;50.958;3.124;2024-03-17T10:31:31;12.60;;;8.10;;
37655;SDS011;23498;50.958;3.124;2024-03-17T10:34:03;16.58;;;8.52;;
37655;SDS011;23498;50.958;3.124;2024-03-17T10:36:29;13.80;;;7.57;;
37655;SDS011;23498;50.958;3.124;2024-03-17T10:38:55;13.65;;;7.78;;
37655;SDS011;23498;50.958;3.124;2024-03-17T10:41:21;16.30;;;9.35;;
37655;SDS011;23498;50.958;3.124;2024-03-17T10:43:49;16.42;;;8.75;;
37655;SDS011;23498;50.958;3.124;2024-03-17T10:46:15;15.63;;;9.25;;
37655;SDS011;23498;50.958;3.124;2024-03-17T10:48:42;17.20;;;9.52;;
37655;SDS011;23498;50.958;3.124;2024-03-17T10:51:11;13.05;;;8.80;;
37655;SDS011;23498;50.958;3.124;2024-03-17T10:53:42;14.38;;;8.20;;
37655;SDS011;23498;50.958;3.124;2024-03-17T10:56:09;15.30;;;7.22;;
37655;SDS011;23498;50.958;3.124;2024-03-17T10:58:38;15.15;;;7.35;;
37655;SDS011;23498;50.958;3.124;2024-03-17T11:01:11;13.02;;;6.93;;
37655;SDS011;23498;50.958;3.124;2024-03-17T11:03:39;15.65;;;7.13;;
37655;SDS011;23498;50.958;3.124;2024-03-17T11:06:05;10.88;;;5.80;;
37655;SDS011;23498;50.958;3.124;2024-03-17T11:08:35;12.10;;;5.45;;
37655;SDS011;23498;50.958;3.124;2024-03-17T11:14:18;12.98;;;5.97;;
37655;SDS011;23498;50.958;3.124;2024-03-17T11:16:45;9.63;;;5.72;;
37655;SDS011;23498;50.958;3.124;2024-03-17T11:19:15;10.80;;;6.05;;
37655;SDS011;23498;50.958;3.124;2024-03-17T11:21:42;13.60;;;6.72;;
37655;SDS011;23498;50.958;3.124;2024-03-17T11:24:21;9.63;;;5.25;;
37655;SDS011;23498;50.958;3.124;2024-03-17T11:26:47;9.63;;;5.00;;
37655;SDS011;23498;50.958;3.124;2024-03-17T11:29:29;12.20;;;6.10;;
37655;SDS011;23498;50.958;3.124;2024-03-17T11:31:57;9.18;;;5.07;;
37655;SDS011;23498;50.958;3.124;2024-03-17T11:34:36;10.02;;;5.00;;
37655;SDS011;23498;50.958;3.124;2024-03-17T11:40:24;8.77;;;4.30;;
37655;SDS011;23498;50.958;3.124;2024-03-17T11:43:08;7.35;;;3.78;;
37655;SDS011;23498;50.958;3.124;2024-03-17T11:45:39;6.78;;;4.35;;
37655;SDS011;23498;50.958;3.124;2024-03-17T11:48:07;11.38;;;4.55;;
37655;SDS011;23498;50.958;3.124;2024-03-17T11:50:38;8.32;;;3.67;;
37655;SDS011;23498;50.958;3.124;2024-03-17T11:53:04;7.35;;;3.40;;
37655;SDS011;23498;50.958;3.124;2024-03-17T11:55:30;9.73;;;4.13;;
37655;SDS011;23498;50.958;3.124;2024-03-17T11:57:56;9.77;;;4.22;;
37655;SDS011;23498;50.958;3.124;2024-03-17T12:00:22;7.70;;;3.60;;
37655;SDS011;23498;50.958;3.124;2024-03-17T12:02:49;6.80;;;3.80;;
37655;SDS011;23498;50.958;3.124;2024-03-17T12:05:16;8.93;;;3.50;;
37655;SDS011;23498;50.958;3.124;2024-03-17T12:07:42;8.07;;;3.20;;
37655;SDS011;23498;50.958;3.124;2024-03-17T12:10:10;6.75;;;2.70;;
37655;SDS011;23498;50.958;3.124;2024-03-17T12:12:38;7.45;;;2.63;;
37655;SDS011;23498;50.958;3.124;2024-03-17T12:15:13;9.00;;;2.40;;
37655;SDS011;23498;50.958;3.124;2024-03-17T12:17:41;7.32;;;2.67;;
37655;SDS011;23498;50.958;3.124;2024-03-17T12:20:16;6.35;;;2.72;;
37655;SDS011;23498;50.958;3.124;2024-03-17T12:22:43;7.80;;;2.70;;
37655;SDS011;23498;50.958;3.124;2024-03-17T12:25:14;8.88;;;2.60;;
37655;SDS011;23498;50.958;3.124;2024-03-17T12:27:41;9.07;;;2.78;;
37655;SDS011;23498;50.958;3.124;2024-03-17T12:30:09;7.38;;;2.65;;
37655;SDS011;23498;50.958;3.124;2024-03-17T12:32:35;7.78;;;2.60;;
37655;SDS011;23498;50.958;3.124;2024-03-17T12:35:01;6.47;;;2.58;;
37655;SDS011;23498;50.958;3.124;2024-03-17T12:37:28;7.70;;;3.17;;
37655;SDS011;23498;50.958;3.124;2024-03-17T12:40:00;7.60;;;2.80;;
37655;SDS011;23498;50.958;3.124;2024-03-17T12:42:26;7.53;;;2.95;;
37655;SDS011;23498;50.958;3.124;2024-03-17T12:47:19;9.88;;;4.78;;
37655;SDS011;23498;50.958;3.124;2024-03-17T12:52:18;11.65;;;6.30;;
37655;SDS011;23498;50.958;3.124;2024-03-17T12:54:45;10.88;;;5.05;;
37655;SDS011;23498;50.958;3.124;2024-03-17T12:57:31;9.57;;;5.30;;
37655;SDS011;23498;50.958;3.124;2024-03-17T13:00:20;8.02;;;3.90;;
37655;SDS011;23498;50.958;3.124;2024-03-17T13:02:57;8.88;;;3.90;;
37655;SDS011;23498;50.958;3.124;2024-03-17T13:05:23;8.30;;;4.28;;
37655;SDS011;23498;50.958;3.124;2024-03-17T13:07:49;9.88;;;5.53;;
37655;SDS011;23498;50.958;3.124;2024-03-17T13:10:16;10.82;;;5.18;;
37655;SDS011;23498;50.958;3.124;2024-03-17T13:12:43;8.57;;;4.18;;
37655;SDS011;23498;50.958;3.124;2024-03-17T13:15:11;11.52;;;4.40;;
37655;SDS011;23498;50.958;3.124;2024-03-17T13:17:37;8.32;;;4.13;;
37655;SDS011;23498;50.958;3.124;2024-03-17T13:20:04;7.63;;;4.10;;
37655;SDS011;23498;50.958;3.124;2024-03-17T13:22:33;9.93;;;4.18;;
37655;SDS011;23498;50.958;3.124;2024-03-17T13:25:00;7.50;;;3.30;;
37655;SDS011;23498;50.958;3.124;2024-03-17T13:27:26;6.43;;;3.47;;
37655;SDS011;23498;50.958;3.124;2024-03-17T13:29:52;5.70;;;2.88;;
37655;SDS011;23498;50.958;3.124;2024-03-17T13:32:19;6.10;;;3.38;;
37655;SDS011;23498;50.958;3.124;2024-03-17T13:34:45;7.35;;;2.90;;
37655;SDS011;23498;50.958;3.124;2024-03-17T13:37:11;5.93;;;3.20;;
37655;SDS011;23498;50.958;3.124;2024-03-17T13:39:37;6.45;;;2.80;;
37655;SDS011;23498;50.958;3.124;2024-03-17T13:42:03;6.38;;;3.03;;
37655;SDS011;23498;50.958;3.124;2024-03-17T13:44:29;6.65;;;2.90;;
37655;SDS011;23498;50.958;3.124;2024-03-17T13:46:56;7.38;;;3.47;;
37655;SDS011;23498;50.958;3.124;2024-03-17T13:49:23;6.75;;;3.05;;
37655;SDS011;23498;50.958;3.124;2024-03-17T13:51:49;6.50;;;3.00;;
37655;SDS011;23498;50.958;3.124;2024-03-17T13:54:15;8.10;;;3.35;;
37655;SDS011;23498;50.958;3.124;2024-03-17T13:56:41;6.30;;;2.97;;
37655;SDS011;23498;50.958;3.124;2024-03-17T13:59:07;5.93;;;2.80;;
37655;SDS011;23498;50.958;3.124;2024-03-17T14:01:33;6.30;;;3.33;;
37655;SDS011;23498;50.958;3.124;2024-03-17T14:04:00;8.05;;;4.00;;
37655;SDS011;23498;50.958;3.124;2024-03-17T14:06:26;6.57;;;2.88;;
37655;SDS011;23498;50.958;3.124;2024-03-17T14:08:52;8.30;;;3.17;;
37655;SDS011;23498;50.958;3.124;2024-03-17T14:11:18;10.27;;;3.70;;
37655;SDS011;23498;50.958;3.124;2024-03-17T14:13:44;7.97;;;3.20;;
37655;SDS011;23498;50.958;3.124;2024-03-17T14:16:10;9.98;;;4.43;;
37655;SDS011;23498;50.958;3.124;2024-03-17T14:18:36;13.18;;;5.68;;
37655;SDS011;23498;50.958;3.124;2024-03-17T14:21:02;13.85;;;5.28;;
37655;SDS011;23498;50.958;3.124;2024-03-17T14:23:30;11.35;;;5.50;;
37655;SDS011;23498;50.958;3.124;2024-03-17T14:25:56;22.80;;;7.38;;
37655;SDS011;23498;50.958;3.124;2024-03-17T14:28:22;13.80;;;6.15;;
37655;SDS011;23498;50.958;3.124;2024-03-17T14:30:48;11.15;;;6.00;;
37655;SDS011;23498;50.958;3.124;2024-03-17T14:33:16;8.02;;;4.25;;
37655;SDS011;23498;50.958;3.124;2024-03-17T14:35:42;8.43;;;4.65;;
37655;SDS011;23498;50.958;3.124;2024-03-17T14:38:09;8.30;;;5.65;;
37655;SDS011;23498;50.958;3.124;2024-03-17T14:40:35;10.82;;;5.30;;
37655;SDS011;23498;50.958;3.124;2024-03-17T14:43:01;13.32;;;8.80;;
37655;SDS011;23498;50.958;3.124;2024-03-17T14:45:29;17.38;;;9.27;;
37655;SDS011;23498;50.958;3.124;2024-03-17T14:47:55;17.27;;;7.93;;
37655;SDS011;23498;50.958;3.124;2024-03-17T14:50:22;40.53;;;16.95;;
37655;SDS011;23498;50.958;3.124;2024-03-17T14:52:48;29.40;;;11.77;;
37655;SDS011;23498;50.958;3.124;2024-03-17T14:55:14;20.50;;;8.82;;